CTP5 weather

St. Paul (Health Care Centre) Heliport
St. Paul, Alberta, Canada

Public forecast

Using degrees Celsius for public forecast. Weather courtesy of forecast.io.

METAR (pilot weather report)

Closest report is CFB Cold Lake, 43.5 nm (80.5 km) NE. Retrieved 2019/04/24 01:00 UTC (28 minutes ago):

CYOD 240100Z 28017KT 15SM FEW070 FEW250 14/M07 A2971 RMK CU1CI1 CU TR CI TR SLP075

TAF (pilot weather forecast)

Forecast is more than 12 hours old.

Closest forecast is CFB Cold Lake, 43.5 nm (80.5 km) NE. Retrieved 2019/04/23 00:36 UTC (1 day ago):

TAF CYOD 232333Z 2400/2424 27015G25KT P6SM FEW070 BECMG 2404/2406 29012KT FM241600 29010G20KT P6SM FEW070 FM242100 28012G22KT P6SM SCT070 BKN120 PROB30 2422/2424 VRB15G30KT 2SM TSRA BR BKN050CB RMK NXT FCST BY 240300Z